createdAt,value
2023-01-23T00:01:30.894Z,11.77
2023-01-23T00:03:35.186Z,11.30
2023-01-23T00:05:39.243Z,11.20
2023-01-23T00:07:40.898Z,10.67
2023-01-23T00:09:46.648Z,13.13
2023-01-23T00:11:48.406Z,10.50
2023-01-23T00:13:50.964Z,12.57
2023-01-23T00:15:55.256Z,11.73
2023-01-23T00:17:59.356Z,11.97
2023-01-23T00:20:02.507Z,11.07
2023-01-23T00:22:04.299Z,10.93
2023-01-23T00:24:06.502Z,10.60
2023-01-23T00:26:12.356Z,12.63
2023-01-23T00:28:15.513Z,10.50
2023-01-23T00:30:17.736Z,11.33
2023-01-23T00:32:20.149Z,10.73
2023-01-23T00:34:21.827Z,11.40
2023-01-23T00:36:24.307Z,10.57
2023-01-23T00:38:26.268Z,11.23
2023-01-23T00:40:27.967Z,11.13
2023-01-23T00:42:29.691Z,10.67
2023-01-23T00:44:34.998Z,11.37
2023-01-23T00:46:36.745Z,11.13
2023-01-23T00:48:38.464Z,10.50
2023-01-23T00:50:40.141Z,10.27
2023-01-23T00:52:41.839Z,11.20
2023-01-23T00:54:45.778Z,10.17
2023-01-23T00:56:48.135Z,10.93
2023-01-23T00:58:50.216Z,11.27
2023-01-23T01:00:52.414Z,10.13
2023-01-23T01:02:54.332Z,10.40
2023-01-23T01:04:58.588Z,12.70
2023-01-23T01:07:00.363Z,11.17
2023-01-23T01:09:05.520Z,11.00
2023-01-23T01:11:07.870Z,10.77
2023-01-23T01:13:10.639Z,12.13
2023-01-23T01:15:15.794Z,10.93
2023-01-23T01:17:17.504Z,12.07
2023-01-23T01:19:19.861Z,10.60
2023-01-23T01:21:21.624Z,11.13
2023-01-23T01:23:23.275Z,10.37
2023-01-23T01:25:25.603Z,10.17
2023-01-23T01:27:29.210Z,9.77
2023-01-23T01:29:31.067Z,10.47
2023-01-23T01:31:32.926Z,9.43
2023-01-23T01:33:34.800Z,10.83
2023-01-23T01:35:39.721Z,10.13
2023-01-23T01:37:44.699Z,10.33
2023-01-23T01:39:48.226Z,10.17
2023-01-23T01:41:50.151Z,10.73
2023-01-23T01:43:53.828Z,10.30
2023-01-23T01:46:21.212Z,10.47
2023-01-23T01:48:27.363Z,10.77
2023-01-23T01:50:29.077Z,9.03
2023-01-23T01:52:31.059Z,10.27
2023-01-23T01:54:54.634Z,10.47
2023-01-23T01:57:08.395Z,9.73
2023-01-23T01:59:11.850Z,10.20
2023-01-23T02:01:14.026Z,9.80
2023-01-23T02:03:19.545Z,9.37
2023-01-23T02:05:46.469Z,10.13
2023-01-23T02:07:56.557Z,9.90
2023-01-23T02:09:58.444Z,9.40
2023-01-23T02:12:04.349Z,10.03
2023-01-23T02:14:07.033Z,10.50
2023-01-23T02:16:15.081Z,10.07
2023-01-23T02:18:17.475Z,9.77
2023-01-23T02:20:30.701Z,9.60
2023-01-23T02:22:46.935Z,8.90
2023-01-23T02:25:04.448Z,9.50
2023-01-23T02:27:06.159Z,9.00
2023-01-23T02:29:08.218Z,9.23
2023-01-23T02:31:19.335Z,9.30
2023-01-23T02:33:22.047Z,10.33
2023-01-23T02:35:30.591Z,9.07
2023-01-23T02:37:40.819Z,9.13
2023-01-23T02:39:45.477Z,8.57
2023-01-23T02:41:50.324Z,8.33
2023-01-23T02:43:56.051Z,9.20
2023-01-23T02:45:57.818Z,9.40
2023-01-23T02:48:01.412Z,9.77
2023-01-23T02:50:03.625Z,9.67
2023-01-23T02:52:06.501Z,9.70
2023-01-23T02:54:13.048Z,8.93
2023-01-23T02:56:15.396Z,9.27
2023-01-23T02:58:36.998Z,8.73
2023-01-23T03:00:41.814Z,9.03
2023-01-23T03:02:48.921Z,8.20
2023-01-23T03:04:50.695Z,8.97
2023-01-23T03:06:52.787Z,8.67
2023-01-23T03:08:56.087Z,9.20
2023-01-23T03:11:03.218Z,8.87
2023-01-23T03:13:07.285Z,8.73
2023-01-23T03:15:10.057Z,9.53
2023-01-23T03:17:14.678Z,8.27
2023-01-23T03:19:20.468Z,9.73
2023-01-23T03:21:22.221Z,8.43
2023-01-23T03:23:23.985Z,10.33
2023-01-23T03:25:25.712Z,9.57
2023-01-23T03:27:28.387Z,8.23
2023-01-23T03:29:50.344Z,8.10
2023-01-23T03:31:52.658Z,8.13
2023-01-23T03:33:54.446Z,8.83
2023-01-23T03:36:01.164Z,8.90
2023-01-23T03:38:03.839Z,8.63
2023-01-23T03:40:25.120Z,8.90
2023-01-23T03:42:28.191Z,8.00
2023-01-23T03:44:32.483Z,7.87
2023-01-23T03:46:36.162Z,8.17
2023-01-23T03:48:38.170Z,8.53
2023-01-23T03:50:39.865Z,7.90
2023-01-23T03:52:45.253Z,9.53
2023-01-23T03:54:49.715Z,8.17
2023-01-23T03:56:51.533Z,8.17
2023-01-23T03:59:22.594Z,8.57
2023-01-23T04:01:24.671Z,8.50
2023-01-23T04:03:29.361Z,9.40
2023-01-23T04:05:32.062Z,8.03
2023-01-23T04:07:35.004Z,8.00
2023-01-23T04:09:42.648Z,8.50
2023-01-23T04:11:48.032Z,8.20
2023-01-23T04:13:50.960Z,7.70
2023-01-23T04:15:53.041Z,8.03
2023-01-23T04:17:54.812Z,8.30
2023-01-23T04:19:59.812Z,8.60
2023-01-23T04:22:02.717Z,8.93
2023-01-23T04:24:09.789Z,8.53
2023-01-23T04:26:11.782Z,8.30
2023-01-23T04:28:16.602Z,8.33
2023-01-23T04:30:19.972Z,8.63
2023-01-23T04:32:21.878Z,8.13
2023-01-23T04:34:23.758Z,7.77
2023-01-23T04:36:27.558Z,7.60
2023-01-23T04:38:30.327Z,8.30
2023-01-23T04:40:36.219Z,8.47
2023-01-23T04:42:40.995Z,8.63
2023-01-23T04:44:46.345Z,8.27
2023-01-23T04:47:14.102Z,8.57
2023-01-23T04:49:16.283Z,8.23
2023-01-23T04:51:18.075Z,8.07
2023-01-23T04:53:20.782Z,8.33
2023-01-23T04:55:33.993Z,7.47
2023-01-23T04:57:45.488Z,7.67
2023-01-23T05:00:00.342Z,7.87
2023-01-23T05:02:02.781Z,7.57
2023-01-23T05:04:12.154Z,7.00
2023-01-23T05:06:13.920Z,7.27
2023-01-23T05:08:15.621Z,8.13
2023-01-23T05:10:23.525Z,7.73
2023-01-23T05:12:27.892Z,8.03
2023-01-23T05:14:31.965Z,7.53
2023-01-23T05:16:34.509Z,7.90
2023-01-23T05:18:53.882Z,7.73
2023-01-23T05:20:55.609Z,9.10
2023-01-23T05:22:58.625Z,7.83
2023-01-23T05:25:14.785Z,7.37
2023-01-23T05:27:16.593Z,7.70
2023-01-23T05:29:21.626Z,7.20
2023-01-23T05:31:31.891Z,8.23
2023-01-23T05:33:52.023Z,7.27
2023-01-23T05:35:59.446Z,7.70
2023-01-23T05:38:01.417Z,6.87
2023-01-23T05:40:04.724Z,7.03
2023-01-23T05:42:26.509Z,7.00
2023-01-23T05:44:37.855Z,7.03
2023-01-23T05:46:45.554Z,7.53
2023-01-23T05:48:52.174Z,6.90
2023-01-23T05:50:58.933Z,7.53
2023-01-23T05:53:04.335Z,6.93
2023-01-23T05:55:11.631Z,7.63
2023-01-23T05:57:15.343Z,6.53
2023-01-23T05:59:35.899Z,6.40
2023-01-23T06:01:49.795Z,6.40
2023-01-23T06:04:13.011Z,6.43
2023-01-23T06:06:31.045Z,6.47
2023-01-23T06:08:32.817Z,6.60
2023-01-23T06:10:37.597Z,7.30
2023-01-23T06:12:39.634Z,7.03
2023-01-23T06:14:43.822Z,6.77
2023-01-23T06:16:47.670Z,7.30
2023-01-23T06:18:49.354Z,6.23
2023-01-23T06:21:01.141Z,7.23
2023-01-23T06:23:03.605Z,7.00
2023-01-23T06:25:06.602Z,6.30
2023-01-23T06:27:08.810Z,6.80
2023-01-23T06:29:15.472Z,6.63
2023-01-23T06:31:17.637Z,6.83
2023-01-23T06:33:27.529Z,6.90
2023-01-23T06:35:31.080Z,7.37
2023-01-23T06:37:32.774Z,7.67
2023-01-23T06:39:34.497Z,6.70
2023-01-23T06:41:39.534Z,7.17
2023-01-23T06:43:43.809Z,6.60
2023-01-23T06:45:51.747Z,7.40
2023-01-23T06:47:54.206Z,6.77
2023-01-23T06:49:58.131Z,6.90
2023-01-23T06:52:01.141Z,6.90
2023-01-23T06:54:03.626Z,6.33
2023-01-23T06:56:07.646Z,6.97
2023-01-23T06:58:11.663Z,6.97
2023-01-23T07:00:16.414Z,6.33
2023-01-23T07:02:20.227Z,6.93
2023-01-23T07:04:26.020Z,7.10
2023-01-23T07:06:30.592Z,6.27
2023-01-23T07:08:33.696Z,6.50
2023-01-23T07:10:37.735Z,6.27
2023-01-23T07:12:39.458Z,6.63
2023-01-23T07:14:43.071Z,6.47
2023-01-23T07:16:47.813Z,6.37
2023-01-23T07:18:51.265Z,6.63
2023-01-23T07:20:53.123Z,6.53
2023-01-23T07:22:55.763Z,6.77
2023-01-23T07:24:57.466Z,6.30
2023-01-23T07:26:59.276Z,7.00
2023-01-23T07:29:01.046Z,6.97
2023-01-23T07:31:03.499Z,6.63
2023-01-23T07:33:07.862Z,8.00
2023-01-23T07:35:10.643Z,6.97
2023-01-23T07:37:12.455Z,7.87
2023-01-23T07:39:16.018Z,6.50
2023-01-23T07:41:17.640Z,6.67
2023-01-23T07:43:19.790Z,6.47
2023-01-23T07:45:22.844Z,6.03
2023-01-23T07:47:26.954Z,6.30
2023-01-23T07:49:28.864Z,6.60
2023-01-23T07:51:30.623Z,5.53
2023-01-23T07:53:32.443Z,4.80
2023-01-23T07:55:38.807Z,5.93
2023-01-23T07:57:43.371Z,5.43
2023-01-23T07:59:45.052Z,5.77
2023-01-23T08:01:48.862Z,5.97
2023-01-23T08:03:50.700Z,5.50
2023-01-23T08:05:53.192Z,5.97
2023-01-23T08:08:11.441Z,5.37
2023-01-23T08:10:14.719Z,4.97
2023-01-23T08:12:16.507Z,5.03
2023-01-23T08:14:18.388Z,5.10
2023-01-23T08:16:20.160Z,4.70
2023-01-23T08:18:21.995Z,5.10
2023-01-23T08:20:23.799Z,5.63
2023-01-23T08:22:27.873Z,5.13
2023-01-23T08:24:29.607Z,4.57
2023-01-23T08:26:31.251Z,5.17
2023-01-23T08:28:33.336Z,5.07
2023-01-23T08:30:35.182Z,5.17
2023-01-23T08:32:36.926Z,5.03
2023-01-23T08:34:38.667Z,4.83
2023-01-23T08:36:41.371Z,4.73
2023-01-23T08:38:43.168Z,5.00
2023-01-23T08:40:49.521Z,4.90
2023-01-23T08:42:54.065Z,4.50
2023-01-23T08:44:59.003Z,4.97
2023-01-23T08:47:03.067Z,4.63
2023-01-23T08:49:07.281Z,4.83
2023-01-23T08:51:12.674Z,5.27
2023-01-23T08:53:15.357Z,4.90
2023-01-23T08:55:17.133Z,4.60
2023-01-23T08:57:21.020Z,5.17
2023-01-23T08:59:22.750Z,5.40
2023-01-23T09:01:26.627Z,4.73
2023-01-23T09:03:28.568Z,4.37
2023-01-23T09:05:31.230Z,4.63
2023-01-23T09:07:37.496Z,4.20
2023-01-23T09:09:39.294Z,4.73
2023-01-23T09:11:41.084Z,4.77
2023-01-23T09:13:42.872Z,4.50
2023-01-23T09:15:44.599Z,4.73
2023-01-23T09:17:49.481Z,5.10
2023-01-23T09:19:51.607Z,5.47
2023-01-23T09:21:54.871Z,5.43
2023-01-23T09:23:57.038Z,4.73
2023-01-23T09:26:04.207Z,5.47
2023-01-23T09:28:06.092Z,5.07
2023-01-23T09:30:08.421Z,5.60
2023-01-23T09:32:10.316Z,5.50
2023-01-23T09:34:14.060Z,5.47
2023-01-23T09:36:16.983Z,5.20
2023-01-23T09:38:18.712Z,5.57
2023-01-23T09:40:24.239Z,5.37
2023-01-23T09:42:32.048Z,5.73
2023-01-23T09:44:36.842Z,6.73
2023-01-23T09:46:47.721Z,5.93
2023-01-23T09:48:58.138Z,6.17
2023-01-23T09:51:06.885Z,5.50
2023-01-23T09:53:18.699Z,5.80
2023-01-23T09:55:33.860Z,5.83
2023-01-23T09:57:43.698Z,6.37
2023-01-23T10:00:00.308Z,5.70
2023-01-23T10:02:20.048Z,5.80
2023-01-23T10:04:21.993Z,5.57
2023-01-23T10:06:27.851Z,5.47
2023-01-23T10:08:50.791Z,5.90
2023-01-23T10:11:07.120Z,6.00
2023-01-23T10:13:25.942Z,6.83
2023-01-23T10:15:36.333Z,5.70
2023-01-23T10:17:48.351Z,6.40
2023-01-23T10:20:07.556Z,5.80
2023-01-23T10:22:31.452Z,5.57
2023-01-23T10:24:51.882Z,5.60
2023-01-23T10:26:58.215Z,5.63
2023-01-23T10:29:31.525Z,6.23
2023-01-23T10:31:43.344Z,5.77
2023-01-23T10:33:54.475Z,5.87
2023-01-23T10:36:12.523Z,5.67
2023-01-23T10:38:46.360Z,5.87
2023-01-23T10:41:07.640Z,5.40
2023-01-23T10:43:23.340Z,6.07
2023-01-23T10:45:25.283Z,5.60
2023-01-23T10:47:43.106Z,5.73
2023-01-23T10:49:48.460Z,6.37
2023-01-23T10:51:52.909Z,5.70
2023-01-23T10:54:33.885Z,5.43
2023-01-23T10:56:45.571Z,6.47
2023-01-23T10:58:49.244Z,5.97
2023-01-23T11:00:51.023Z,6.43
2023-01-23T11:02:53.072Z,5.80
2023-01-23T11:04:57.818Z,6.20
2023-01-23T11:07:20.867Z,6.60
2023-01-23T11:09:22.513Z,6.07
2023-01-23T11:11:29.606Z,6.33
2023-01-23T11:13:31.569Z,6.47
2023-01-23T11:15:40.794Z,6.17
2023-01-23T11:17:46.035Z,5.80
2023-01-23T11:19:51.872Z,5.63
2023-01-23T11:22:06.861Z,6.50
2023-01-23T11:24:30.609Z,6.00
2023-01-23T11:26:39.631Z,6.13
2023-01-23T11:28:49.163Z,6.07
2023-01-23T11:31:12.446Z,6.47
2023-01-23T11:33:53.774Z,6.00
2023-01-23T11:36:29.967Z,7.27
2023-01-23T11:38:47.991Z,6.10
2023-01-23T11:40:54.212Z,7.03
2023-01-23T11:42:55.958Z,6.17
2023-01-23T11:45:01.178Z,5.80
2023-01-23T11:47:19.783Z,6.10
2023-01-23T11:49:46.520Z,5.83
2023-01-23T11:52:15.994Z,6.10
2023-01-23T11:55:03.545Z,5.90
2023-01-23T11:57:19.801Z,6.00
2023-01-23T11:59:23.606Z,6.10
2023-01-23T12:02:02.160Z,6.00
2023-01-23T12:04:35.053Z,6.50
2023-01-23T12:06:45.807Z,6.00
2023-01-23T12:09:04.504Z,6.20
2023-01-23T12:11:20.216Z,6.17
2023-01-23T12:13:55.862Z,5.30
2023-01-23T12:16:35.393Z,5.63
2023-01-23T12:18:43.126Z,5.60
2023-01-23T12:20:51.452Z,5.30
2023-01-23T12:23:10.438Z,5.80
2023-01-23T12:25:35.564Z,5.40
2023-01-23T12:27:57.836Z,5.57
2023-01-23T12:30:18.198Z,5.07
2023-01-23T12:32:21.303Z,5.27
2023-01-23T12:34:57.932Z,5.50
2023-01-23T12:37:29.093Z,6.03
2023-01-23T12:39:46.726Z,5.67
2023-01-23T12:42:03.919Z,5.77
2023-01-23T12:44:07.984Z,5.20
2023-01-23T12:46:16.971Z,5.83
2023-01-23T12:48:37.891Z,6.53
2023-01-23T12:50:43.316Z,6.23
2023-01-23T12:53:00.914Z,5.70
2023-01-23T12:55:18.053Z,5.43
2023-01-23T12:57:52.786Z,5.27
2023-01-23T13:00:10.109Z,5.20
2023-01-23T13:02:29.185Z,6.10
2023-01-23T13:04:55.951Z,5.37
2023-01-23T13:07:16.480Z,5.43
2023-01-23T13:09:43.098Z,5.30
2023-01-23T13:12:01.203Z,6.23
2023-01-23T13:14:02.981Z,6.57
2023-01-23T13:16:13.405Z,5.57
2023-01-23T13:18:28.464Z,5.97
2023-01-23T13:21:31.885Z,5.87
2023-01-23T13:23:37.869Z,6.10
2023-01-23T13:25:39.582Z,5.67
2023-01-23T13:27:47.336Z,5.83
2023-01-23T13:29:51.103Z,5.70
2023-01-23T13:32:25.292Z,5.93
2023-01-23T13:34:30.161Z,5.37
2023-01-23T13:36:36.895Z,5.90
2023-01-23T13:38:40.281Z,6.13
2023-01-23T13:41:04.985Z,5.53
2023-01-23T13:43:44.729Z,6.47
2023-01-23T13:45:48.786Z,5.67
2023-01-23T14:20:25.598Z,6.33
2023-01-23T14:22:29.718Z,6.27
2023-01-23T14:24:45.048Z,6.77
2023-01-23T14:26:52.410Z,6.03
2023-01-23T14:29:03.099Z,6.60
2023-01-23T14:31:07.136Z,5.93
2023-01-23T14:33:16.847Z,6.03
2023-01-23T14:35:21.048Z,6.70
2023-01-23T14:37:23.333Z,6.40
2023-01-23T14:39:30.237Z,6.20
2023-01-23T14:41:41.360Z,6.93
2023-01-23T14:43:44.158Z,6.23
2023-01-23T14:45:54.936Z,6.87
2023-01-23T14:48:05.651Z,7.20
2023-01-23T14:50:19.123Z,7.17
2023-01-23T14:52:24.228Z,6.73
2023-01-23T14:54:29.648Z,7.53
2023-01-23T14:56:37.947Z,7.07
2023-01-23T14:58:40.142Z,7.30
2023-01-23T15:00:42.443Z,6.80
2023-01-23T15:02:45.859Z,7.07
2023-01-23T15:05:13.097Z,6.77
2023-01-23T15:07:17.809Z,7.33
2023-01-23T15:09:33.455Z,6.73
2023-01-23T15:11:35.646Z,5.90
2023-01-23T15:13:44.071Z,8.00
2023-01-23T15:15:57.012Z,7.00
2023-01-23T15:18:01.490Z,7.13
2023-01-23T15:20:06.342Z,7.20
2023-01-23T15:22:22.005Z,7.73
2023-01-23T15:24:29.754Z,7.30
2023-01-23T15:26:40.171Z,7.17
2023-01-23T15:28:50.737Z,7.60
2023-01-23T15:30:52.544Z,7.20
2023-01-23T15:32:54.803Z,6.70
2023-01-23T15:34:59.131Z,7.10
2023-01-23T15:37:12.895Z,7.10
2023-01-23T15:39:28.209Z,7.37
2023-01-23T15:41:43.856Z,7.13
2023-01-23T15:43:45.637Z,7.23
2023-01-23T15:45:47.467Z,7.73
2023-01-23T15:47:49.204Z,6.60
2023-01-23T15:49:50.953Z,7.10
2023-01-23T15:51:54.796Z,7.10
2023-01-23T15:53:56.765Z,8.00
2023-01-23T15:55:59.238Z,7.57
2023-01-23T15:58:03.072Z,7.37
2023-01-23T16:00:24.850Z,7.33
2023-01-23T16:02:32.347Z,7.07
2023-01-23T16:04:35.385Z,7.20
2023-01-23T16:06:38.411Z,7.40
2023-01-23T16:08:40.277Z,6.27
2023-01-23T16:10:42.741Z,7.30
2023-01-23T16:12:49.782Z,6.97
2023-01-23T16:14:51.773Z,7.33
2023-01-23T16:16:56.688Z,6.87
2023-01-23T16:19:01.895Z,7.60
2023-01-23T16:21:03.853Z,8.53
2023-01-23T16:23:15.125Z,7.43
2023-01-23T16:25:41.901Z,8.27
2023-01-23T16:27:45.064Z,7.67
2023-01-23T16:29:49.309Z,8.37
2023-01-23T16:31:51.362Z,8.87
2023-01-23T16:33:53.104Z,8.37
2023-01-23T16:35:55.456Z,8.33
2023-01-23T16:37:57.262Z,8.60
2023-01-23T16:39:58.962Z,8.10
2023-01-23T16:42:00.898Z,8.33
2023-01-23T16:44:02.545Z,8.40
2023-01-23T16:46:04.400Z,7.40
2023-01-23T16:48:07.601Z,7.70
2023-01-23T16:50:18.578Z,9.50
2023-01-23T16:52:23.821Z,8.20
2023-01-23T16:54:34.589Z,9.43
2023-01-23T16:56:38.924Z,7.73
2023-01-23T16:58:41.786Z,8.80
2023-01-23T17:00:44.105Z,8.40
2023-01-23T17:02:51.908Z,8.40
2023-01-23T17:04:53.584Z,9.20
2023-01-23T17:06:55.351Z,8.60
2023-01-23T17:08:57.162Z,7.83
2023-01-23T17:11:04.823Z,9.47
2023-01-23T17:13:07.813Z,8.50
2023-01-23T17:15:29.897Z,8.53
2023-01-23T17:17:36.112Z,8.57
2023-01-23T17:19:44.155Z,9.37
2023-01-23T17:21:46.271Z,8.90
2023-01-23T17:23:48.169Z,8.80
2023-01-23T17:26:00.327Z,9.37
2023-01-23T17:28:12.897Z,9.00
2023-01-23T17:30:23.313Z,8.93
2023-01-23T17:32:35.362Z,8.93
2023-01-23T17:34:48.988Z,8.83
2023-01-23T17:36:54.255Z,9.87
2023-01-23T17:38:58.220Z,9.77
2023-01-23T17:41:00.117Z,9.00
2023-01-23T17:43:01.881Z,9.80
2023-01-23T17:45:03.947Z,9.90
2023-01-23T17:47:06.871Z,9.77
2023-01-23T17:49:30.862Z,11.27
2023-01-23T17:51:33.529Z,8.33
2023-01-23T17:53:36.648Z,8.47
2023-01-23T17:55:43.571Z,8.70
2023-01-23T17:57:49.590Z,7.87
2023-01-23T17:59:56.493Z,10.37
2023-01-23T18:02:00.904Z,8.37
2023-01-23T18:04:02.912Z,8.83
2023-01-23T18:06:09.911Z,8.00
2023-01-23T18:08:16.631Z,8.30
2023-01-23T18:10:18.620Z,7.27
2023-01-23T18:12:45.954Z,8.20
2023-01-23T18:14:56.053Z,9.70
2023-01-23T18:16:57.945Z,10.67
2023-01-23T18:19:18.014Z,9.53
2023-01-23T18:21:22.924Z,7.97
2023-01-23T18:23:27.915Z,8.00
2023-01-23T18:25:31.132Z,7.80
2023-01-23T18:27:40.363Z,8.57
2023-01-23T18:30:16.681Z,8.67
2023-01-23T18:32:23.876Z,8.40
2023-01-23T18:34:50.226Z,8.60
2023-01-23T18:37:33.355Z,9.50
2023-01-23T18:39:47.674Z,8.23
2023-01-23T18:42:24.511Z,9.27
2023-01-23T18:44:27.141Z,9.60
2023-01-23T18:46:29.003Z,8.90
2023-01-23T18:48:31.203Z,9.03
2023-01-23T18:50:33.154Z,10.27
2023-01-23T18:52:54.414Z,9.37
2023-01-23T18:55:23.207Z,7.90
2023-01-23T18:57:41.156Z,8.60
2023-01-23T19:00:06.238Z,9.83
2023-01-23T19:02:16.457Z,9.77
2023-01-23T19:04:20.295Z,8.97
2023-01-23T19:06:26.302Z,8.67
2023-01-23T19:08:31.453Z,9.17
2023-01-23T19:10:48.954Z,8.83
2023-01-23T19:12:50.740Z,8.03
2023-01-23T19:15:20.359Z,8.10
2023-01-23T19:17:42.436Z,9.53
2023-01-23T19:20:23.410Z,8.90
2023-01-23T19:22:27.112Z,9.60
2023-01-23T19:24:29.082Z,9.47
2023-01-23T19:26:35.227Z,8.20
2023-01-23T19:28:38.565Z,8.87
2023-01-23T19:30:42.263Z,8.33
2023-01-23T19:32:49.465Z,8.93
2023-01-23T19:34:51.201Z,7.80
2023-01-23T19:36:55.311Z,8.60
2023-01-23T19:39:02.954Z,9.53
2023-01-23T19:41:06.206Z,8.03
2023-01-23T19:43:16.735Z,9.07
2023-01-23T19:45:20.348Z,7.97
2023-01-23T19:47:24.606Z,8.73
2023-01-23T19:49:26.313Z,8.53
2023-01-23T19:51:34.107Z,8.70
2023-01-23T19:53:35.861Z,9.03
2023-01-23T19:55:38.461Z,8.27
2023-01-23T19:57:40.232Z,8.33
2023-01-23T19:59:43.827Z,8.23
2023-01-23T20:01:49.476Z,8.10
2023-01-23T20:03:51.844Z,8.70
2023-01-23T20:05:55.659Z,8.97
2023-01-23T20:07:58.664Z,9.97
2023-01-23T20:10:00.439Z,10.10
2023-01-23T20:12:02.392Z,8.30
2023-01-23T20:14:04.328Z,8.53
2023-01-23T20:16:20.727Z,7.97
2023-01-23T20:18:22.629Z,8.30
2023-01-23T20:20:24.703Z,8.80
2023-01-23T20:22:26.586Z,9.60
2023-01-23T20:24:28.304Z,8.37
2023-01-23T20:26:29.995Z,8.27
2023-01-23T20:28:31.738Z,8.20
2023-01-23T20:30:33.618Z,8.53
2023-01-23T20:32:35.397Z,8.90
2023-01-23T20:34:37.224Z,8.40
2023-01-23T20:36:38.931Z,6.90
2023-01-23T20:38:41.274Z,7.03
2023-01-23T20:40:43.009Z,7.57
2023-01-23T20:42:46.995Z,7.57
2023-01-23T20:44:48.749Z,7.67
2023-01-23T20:46:53.511Z,7.53
2023-01-23T20:48:55.710Z,9.10
2023-01-23T20:50:57.540Z,7.80
2023-01-23T20:53:18.898Z,8.87
2023-01-23T20:55:20.970Z,6.93
2023-01-23T20:57:22.910Z,8.10
2023-01-23T20:59:26.192Z,8.43
2023-01-23T21:01:51.499Z,7.90
2023-01-23T21:03:53.546Z,7.93
2023-01-23T21:05:56.178Z,7.50
2023-01-23T21:07:57.964Z,7.00
2023-01-23T21:09:59.868Z,8.10
2023-01-23T21:12:01.579Z,7.90
2023-01-23T21:14:03.284Z,8.10
2023-01-23T21:16:13.735Z,7.97
2023-01-23T21:18:17.703Z,7.33
2023-01-23T21:20:19.468Z,8.33
2023-01-23T21:22:21.181Z,7.90
2023-01-23T21:24:23.337Z,8.43
2023-01-23T21:26:28.839Z,8.10
2023-01-23T21:28:35.117Z,7.57
2023-01-23T21:30:40.126Z,7.77
2023-01-23T21:32:42.291Z,8.23
2023-01-23T21:34:44.121Z,7.43
2023-01-23T21:36:45.773Z,8.57
2023-01-23T21:38:48.006Z,7.97
2023-01-23T21:40:49.771Z,8.20
2023-01-23T21:42:51.478Z,7.90
2023-01-23T21:44:55.986Z,7.93
2023-01-23T21:46:57.652Z,8.17
2023-01-23T21:48:59.329Z,8.50
2023-01-23T21:51:08.260Z,8.40
2023-01-23T21:53:12.883Z,7.47
2023-01-23T21:55:17.297Z,8.27
2023-01-23T21:57:21.811Z,8.20
2023-01-23T21:59:23.667Z,8.00
2023-01-23T22:01:32.984Z,8.10
2023-01-23T22:03:37.446Z,7.80
2023-01-23T22:05:46.435Z,8.57
2023-01-23T22:07:50.274Z,8.17
2023-01-23T22:09:55.878Z,8.07
2023-01-23T22:11:57.725Z,8.20
2023-01-23T22:13:59.846Z,8.90
2023-01-23T22:16:04.668Z,7.90
2023-01-23T22:18:06.546Z,8.53
2023-01-23T22:20:10.604Z,9.23
2023-01-23T22:22:15.285Z,8.83
2023-01-23T22:24:17.291Z,8.50
2023-01-23T22:26:21.960Z,9.27
2023-01-23T22:28:26.284Z,8.13
2023-01-23T22:30:28.160Z,8.70
2023-01-23T22:32:34.053Z,8.33
2023-01-23T22:34:35.786Z,8.23
2023-01-23T22:36:40.152Z,8.33
2023-01-23T22:38:41.999Z,7.93
2023-01-23T22:40:43.902Z,8.80
2023-01-23T22:42:45.618Z,9.93
2023-01-23T22:44:47.347Z,8.70
2023-01-23T22:46:53.243Z,7.83
2023-01-23T22:49:04.661Z,8.03
2023-01-23T22:51:12.751Z,8.27
2023-01-23T22:53:14.677Z,8.20
2023-01-23T22:55:16.903Z,8.13
2023-01-23T22:57:21.162Z,9.07
2023-01-23T22:59:23.113Z,8.53
2023-01-23T23:01:27.116Z,8.83
2023-01-23T23:03:34.864Z,9.37
2023-01-23T23:05:36.618Z,8.83
2023-01-23T23:07:41.034Z,8.57
2023-01-23T23:09:46.361Z,8.73
2023-01-23T23:11:51.320Z,8.60
2023-01-23T23:13:54.109Z,8.70
2023-01-23T23:15:58.124Z,8.87
2023-01-23T23:18:02.407Z,8.27
2023-01-23T23:20:05.546Z,8.57
2023-01-23T23:22:10.616Z,8.20
2023-01-23T23:24:13.525Z,9.23
2023-01-23T23:26:16.603Z,8.43
2023-01-23T23:28:18.260Z,8.03
2023-01-23T23:30:22.221Z,8.53
2023-01-23T23:32:24.082Z,8.30
2023-01-23T23:34:25.784Z,8.17
2023-01-23T23:36:27.758Z,8.97
2023-01-23T23:38:29.791Z,8.10
2023-01-23T23:40:31.463Z,9.03
2023-01-23T23:42:33.115Z,8.73
2023-01-23T23:44:34.894Z,8.27
2023-01-23T23:46:36.585Z,8.90
2023-01-23T23:48:40.949Z,8.87
2023-01-23T23:50:43.144Z,8.47
2023-01-23T23:52:44.826Z,8.50
2023-01-23T23:54:46.509Z,8.00
2023-01-23T23:56:48.398Z,8.77
2023-01-23T23:58:50.806Z,9.00
